createdAt,value
2022-08-27T00:01:41.451Z,17.30
2022-08-27T00:03:45.195Z,17.20
2022-08-27T00:05:48.998Z,17.20
2022-08-27T00:07:52.119Z,17.20
2022-08-27T00:09:55.161Z,17.20
2022-08-27T00:11:59.177Z,17.20
2022-08-27T00:14:02.719Z,17.20
2022-08-27T00:16:11.044Z,17.20
2022-08-27T00:18:14.326Z,17.20
2022-08-27T00:20:20.468Z,17.10
2022-08-27T00:22:23.053Z,17.10
2022-08-27T00:24:25.705Z,17.10
2022-08-27T00:26:28.745Z,17.10
2022-08-27T00:28:32.280Z,17.10
2022-08-27T00:30:35.392Z,17.00
2022-08-27T00:32:42.145Z,17.00
2022-08-27T00:34:45.669Z,16.90
2022-08-27T00:36:48.962Z,17.00
2022-08-27T00:38:53.728Z,16.90
2022-08-27T00:40:57.244Z,16.90
2022-08-27T00:43:00.501Z,16.90
2022-08-27T00:45:03.988Z,16.80
2022-08-27T00:47:12.547Z,16.80
2022-08-27T00:49:22.553Z,16.80
2022-08-27T00:51:27.405Z,16.80
2022-08-27T00:53:33.250Z,16.80
2022-08-27T00:55:42.652Z,16.70
2022-08-27T00:57:51.045Z,16.70
2022-08-27T00:59:55.153Z,16.80
2022-08-27T01:01:59.052Z,16.80
2022-08-27T01:04:05.442Z,16.80
2022-08-27T01:06:16.080Z,16.80
2022-08-27T01:08:25.664Z,16.70
2022-08-27T01:10:29.526Z,16.60
2022-08-27T01:12:33.985Z,16.60
2022-08-27T01:14:38.204Z,16.60
2022-08-27T01:16:46.583Z,16.50
2022-08-27T01:18:50.090Z,16.50
2022-08-27T01:20:56.829Z,16.50
2022-08-27T01:23:11.520Z,16.40
2022-08-27T01:25:18.519Z,16.40
2022-08-27T01:27:25.489Z,16.40
2022-08-27T01:29:28.852Z,16.40
2022-08-27T01:31:32.066Z,16.40
2022-08-27T01:33:35.452Z,16.40
2022-08-27T01:35:40.210Z,16.30
2022-08-27T01:37:46.231Z,16.30
2022-08-27T01:39:51.328Z,16.30
2022-08-27T01:42:04.003Z,16.30
2022-08-27T01:44:07.130Z,16.30
2022-08-27T01:46:10.243Z,16.30
2022-08-27T01:48:13.370Z,16.20
2022-08-27T01:50:20.440Z,16.30
2022-08-27T01:52:27.176Z,16.20
2022-08-27T01:54:31.369Z,16.20
2022-08-27T01:56:34.520Z,16.20
2022-08-27T01:58:40.560Z,16.30
2022-08-27T02:00:46.973Z,16.30
2022-08-27T02:02:50.266Z,16.30
2022-08-27T02:04:53.404Z,16.20
2022-08-27T02:06:56.596Z,16.20
2022-08-27T02:08:59.652Z,16.20
2022-08-27T02:11:02.902Z,16.20
2022-08-27T02:13:06.164Z,16.20
2022-08-27T02:15:12.291Z,16.20
2022-08-27T02:17:15.767Z,16.20
2022-08-27T02:19:19.240Z,16.20
2022-08-27T02:21:22.303Z,16.20
2022-08-27T02:23:25.407Z,16.20
2022-08-27T02:25:28.520Z,16.20
2022-08-27T02:27:31.634Z,16.20
2022-08-27T02:29:34.989Z,16.20
2022-08-27T02:31:40.958Z,16.20
2022-08-27T02:33:44.129Z,16.10
2022-08-27T02:35:47.208Z,16.10
2022-08-27T02:37:50.654Z,16.10
2022-08-27T02:39:53.746Z,16.10
2022-08-27T02:41:56.860Z,16.10
2022-08-27T02:44:04.198Z,16.10
2022-08-27T02:46:13.633Z,16.10
2022-08-27T02:48:19.681Z,16.10
2022-08-27T02:50:26.867Z,16.10
2022-08-27T02:52:30.681Z,16.00
2022-08-27T02:54:33.809Z,15.90
2022-08-27T02:56:37.622Z,16.00
2022-08-27T02:58:40.810Z,15.90
2022-08-27T03:00:43.953Z,15.90
2022-08-27T03:02:47.071Z,15.90
2022-08-27T03:04:52.775Z,15.90
2022-08-27T03:06:55.938Z,15.90
2022-08-27T03:08:59.130Z,15.80
2022-08-27T03:11:02.149Z,15.80
2022-08-27T03:13:05.218Z,15.80
2022-08-27T03:15:12.717Z,15.80
2022-08-27T03:17:16.020Z,15.70
2022-08-27T03:19:23.662Z,15.70
2022-08-27T03:21:30.169Z,15.70
2022-08-27T03:23:33.259Z,15.70
2022-08-27T03:25:37.117Z,15.70
2022-08-27T03:27:40.900Z,15.70
2022-08-27T03:29:43.916Z,15.80
2022-08-27T03:31:46.973Z,15.70
2022-08-27T03:33:50.263Z,15.70
2022-08-27T03:35:53.506Z,15.70
2022-08-27T03:37:59.177Z,15.70
2022-08-27T03:40:02.968Z,15.70
2022-08-27T03:42:06.184Z,15.60
2022-08-27T03:44:09.184Z,15.60
2022-08-27T03:46:12.588Z,15.60
2022-08-27T03:48:16.137Z,15.60
2022-08-27T03:50:19.514Z,15.60
2022-08-27T03:52:22.606Z,15.50
2022-08-27T03:54:28.368Z,15.50
2022-08-27T03:56:31.356Z,15.50
2022-08-27T03:58:35.635Z,15.50
2022-08-27T04:00:39.859Z,15.40
2022-08-27T04:02:43.654Z,15.40
2022-08-27T04:04:47.743Z,15.40
2022-08-27T04:06:51.188Z,15.40
2022-08-27T04:08:54.314Z,15.40
2022-08-27T04:11:00.098Z,15.40
2022-08-27T04:13:03.183Z,15.40
2022-08-27T04:15:08.842Z,15.40
2022-08-27T04:17:12.099Z,15.40
2022-08-27T04:19:15.484Z,15.40
2022-08-27T04:21:18.977Z,15.30
2022-08-27T04:23:22.071Z,15.40
2022-08-27T04:25:25.083Z,15.40
2022-08-27T04:27:30.745Z,15.40
2022-08-27T04:29:35.471Z,15.40
2022-08-27T04:31:38.898Z,15.50
2022-08-27T04:33:42.048Z,15.50
2022-08-27T04:35:58.723Z,15.60
2022-08-27T04:38:01.879Z,15.70
2022-08-27T04:40:06.177Z,15.80
2022-08-27T04:42:09.272Z,15.90
2022-08-27T04:44:15.084Z,15.90
2022-08-27T04:46:26.672Z,16.00
2022-08-27T04:48:30.391Z,16.10
2022-08-27T04:50:33.394Z,16.10
2022-08-27T04:52:40.848Z,16.20
2022-08-27T04:54:44.239Z,16.20
2022-08-27T04:56:47.242Z,16.30
2022-08-27T04:58:51.516Z,16.30
2022-08-27T05:00:58.325Z,16.30
2022-08-27T05:03:01.364Z,16.30
2022-08-27T05:05:04.895Z,16.40
2022-08-27T05:07:10.214Z,16.40
2022-08-27T05:09:14.529Z,16.50
2022-08-27T05:11:20.205Z,16.50
2022-08-27T05:13:23.687Z,16.60
2022-08-27T05:15:26.727Z,16.70
2022-08-27T05:17:33.700Z,16.70
2022-08-27T05:19:36.790Z,16.80
2022-08-27T05:21:43.831Z,16.90
2022-08-27T05:23:46.925Z,16.90
2022-08-27T05:25:51.977Z,17.00
2022-08-27T05:27:55.055Z,17.00
2022-08-27T05:29:58.067Z,17.10
2022-08-27T05:32:01.162Z,17.20
2022-08-27T05:34:10.709Z,17.30
2022-08-27T05:36:22.565Z,17.40
2022-08-27T05:38:27.382Z,17.40
2022-08-27T05:40:30.467Z,17.50
2022-08-27T05:42:33.521Z,17.70
2022-08-27T05:44:41.005Z,17.90
2022-08-27T05:46:44.822Z,18.00
2022-08-27T05:48:48.355Z,18.10
2022-08-27T05:50:54.040Z,18.20
2022-08-27T05:52:57.128Z,18.30
2022-08-27T05:55:00.378Z,18.30
2022-08-27T05:57:03.557Z,18.40
2022-08-27T05:59:07.191Z,18.60
2022-08-27T06:01:11.912Z,18.70
2022-08-27T06:03:15.003Z,18.70
2022-08-27T06:05:18.768Z,18.80
2022-08-27T06:07:24.439Z,18.90
2022-08-27T06:09:29.265Z,19.00
2022-08-27T06:11:32.406Z,19.20
2022-08-27T06:13:36.351Z,19.20
2022-08-27T06:15:41.612Z,19.40
2022-08-27T06:17:44.751Z,19.40
2022-08-27T06:19:47.954Z,19.60
2022-08-27T06:22:01.262Z,19.70
2022-08-27T06:24:15.891Z,19.80
2022-08-27T06:26:21.309Z,19.90
2022-08-27T06:28:26.867Z,19.90
2022-08-27T06:30:29.892Z,20.00
2022-08-27T06:32:32.904Z,20.10
2022-08-27T06:34:36.342Z,20.30
2022-08-27T06:36:41.042Z,20.50
2022-08-27T06:38:44.620Z,20.60
2022-08-27T06:40:50.364Z,20.50
2022-08-27T06:42:53.443Z,20.50
2022-08-27T06:44:56.595Z,20.70
2022-08-27T06:47:00.033Z,20.90
2022-08-27T06:49:03.131Z,21.10
2022-08-27T06:51:10.327Z,21.40
2022-08-27T06:53:14.112Z,21.70
2022-08-27T06:55:17.205Z,22.00
2022-08-27T06:57:22.902Z,22.10
2022-08-27T06:59:26.107Z,22.00
2022-08-27T07:01:31.568Z,21.70
2022-08-27T07:03:34.591Z,21.60
2022-08-27T07:05:39.468Z,21.10
2022-08-27T07:07:46.721Z,20.90
2022-08-27T07:09:51.719Z,21.10
2022-08-27T07:11:54.812Z,21.30
2022-08-27T07:14:00.873Z,21.60
2022-08-27T07:16:05.960Z,21.60
2022-08-27T07:18:09.164Z,21.80
2022-08-27T07:20:15.656Z,22.40
2022-08-27T07:22:18.834Z,22.60
2022-08-27T07:24:21.962Z,23.20
2022-08-27T07:26:25.559Z,23.60
2022-08-27T07:28:29.510Z,23.70
2022-08-27T07:30:35.250Z,23.70
2022-08-27T07:32:38.774Z,23.80
2022-08-27T07:34:41.849Z,23.70
2022-08-27T07:36:44.899Z,23.10
2022-08-27T07:38:51.683Z,22.60
2022-08-27T07:41:00.594Z,22.70
2022-08-27T07:43:05.721Z,22.70
2022-08-27T07:45:09.881Z,22.80
2022-08-27T07:47:15.570Z,22.30
2022-08-27T07:49:18.912Z,22.00
2022-08-27T07:51:22.694Z,22.00
2022-08-27T07:53:25.738Z,22.30
2022-08-27T07:55:28.825Z,22.50
2022-08-27T07:57:32.167Z,22.50
2022-08-27T07:59:35.272Z,22.60
2022-08-27T08:01:38.538Z,22.90
2022-08-27T08:03:44.496Z,23.30
2022-08-27T08:05:47.505Z,23.70
2022-08-27T08:07:50.663Z,24.20
2022-08-27T08:09:53.706Z,24.00
2022-08-27T08:11:56.758Z,24.20
2022-08-27T08:14:00.635Z,24.30
2022-08-27T08:16:05.107Z,23.90
2022-08-27T08:18:08.212Z,23.80
2022-08-27T08:20:35.954Z,23.60
2022-08-27T08:22:37.984Z,23.10
2022-08-27T08:24:41.067Z,22.90
2022-08-27T08:26:44.152Z,22.60
2022-08-27T08:28:47.198Z,22.30
2022-08-27T08:30:51.746Z,22.40
2022-08-27T08:32:54.953Z,22.40
2022-08-27T08:34:57.958Z,21.90
2022-08-27T08:37:05.064Z,21.50
2022-08-27T08:39:08.170Z,21.50
2022-08-27T08:41:31.740Z,21.30
2022-08-27T08:43:37.998Z,21.30
2022-08-27T08:45:42.913Z,21.20
2022-08-27T08:47:50.748Z,21.50
2022-08-27T08:50:00.940Z,21.90
2022-08-27T08:52:16.982Z,22.30
2022-08-27T08:54:34.775Z,22.70
2022-08-27T08:56:43.724Z,23.10
2022-08-27T08:58:51.004Z,23.20
2022-08-27T09:00:57.201Z,23.00
2022-08-27T09:03:00.525Z,23.40
2022-08-27T09:05:09.926Z,23.70
2022-08-27T09:07:22.122Z,24.00
2022-08-27T09:09:31.817Z,24.20
2022-08-27T09:11:45.260Z,24.50
2022-08-27T09:13:51.784Z,24.70
2022-08-27T09:15:58.923Z,24.70
2022-08-27T09:18:07.752Z,24.50
2022-08-27T09:20:20.360Z,23.70
2022-08-27T09:22:37.061Z,23.20
2022-08-27T09:24:55.571Z,23.00
2022-08-27T09:26:58.750Z,23.20
2022-08-27T09:29:04.843Z,23.20
2022-08-27T09:31:11.765Z,23.30
2022-08-27T09:33:14.870Z,23.20
2022-08-27T09:35:18.339Z,23.30
2022-08-27T09:37:24.015Z,23.20
2022-08-27T09:39:49.325Z,22.90
2022-08-27T09:41:52.469Z,23.00
2022-08-27T09:44:03.220Z,23.20
2022-08-27T09:46:17.778Z,23.50
2022-08-27T09:48:25.351Z,23.30
2022-08-27T09:50:41.700Z,23.40
2022-08-27T09:52:52.940Z,24.00
2022-08-27T09:54:58.706Z,24.90
2022-08-27T09:57:02.336Z,26.00
2022-08-27T09:59:08.318Z,27.00
2022-08-27T10:01:19.589Z,26.90
2022-08-27T10:03:23.550Z,26.00
2022-08-27T10:05:30.426Z,26.20
2022-08-27T10:07:51.694Z,26.70
2022-08-27T10:10:04.815Z,27.10
2022-08-27T10:12:15.181Z,27.40
2022-08-27T10:14:23.143Z,27.80
2022-08-27T10:16:45.184Z,27.60
2022-08-27T10:18:55.160Z,29.10
2022-08-27T10:21:07.933Z,29.60
2022-08-27T10:23:21.532Z,29.10
2022-08-27T10:25:43.482Z,29.10
2022-08-27T10:27:54.263Z,27.40
2022-08-27T10:30:03.217Z,25.90
2022-08-27T10:32:19.402Z,24.70
2022-08-27T10:34:32.254Z,23.40
2022-08-27T10:36:43.275Z,23.20
2022-08-27T10:38:50.488Z,23.10
2022-08-27T10:41:03.443Z,23.10
2022-08-27T10:43:27.060Z,23.00
2022-08-27T10:45:43.332Z,23.20
2022-08-27T10:48:06.301Z,23.20
2022-08-27T10:50:17.621Z,23.20
2022-08-27T10:52:25.725Z,22.70
2022-08-27T10:54:35.514Z,22.10
2022-08-27T10:56:46.100Z,22.00
2022-08-27T10:59:03.020Z,21.80
2022-08-27T11:01:15.784Z,21.90
2022-08-27T11:03:25.890Z,21.60
2022-08-27T11:05:40.828Z,21.70
2022-08-27T11:07:49.300Z,22.00
2022-08-27T11:09:57.668Z,22.00
2022-08-27T11:12:15.644Z,21.70
2022-08-27T11:14:29.178Z,21.60
2022-08-27T11:16:37.119Z,21.60
2022-08-27T11:18:46.746Z,21.30
2022-08-27T11:20:55.745Z,21.00
2022-08-27T11:23:03.372Z,21.00
2022-08-27T11:25:17.504Z,21.30
2022-08-27T11:27:28.822Z,21.50
2022-08-27T11:29:35.181Z,21.70
2022-08-27T11:31:48.273Z,22.40
2022-08-27T11:33:59.979Z,22.40
2022-08-27T11:36:30.817Z,23.00
2022-08-27T11:38:53.092Z,23.70
2022-08-27T11:41:13.737Z,23.30
2022-08-27T11:43:23.905Z,23.00
2022-08-27T11:45:30.687Z,23.20
2022-08-27T11:47:33.809Z,23.10
2022-08-27T11:49:46.745Z,22.90
2022-08-27T11:51:58.289Z,23.30
2022-08-27T11:54:04.014Z,23.30
2022-08-27T11:56:13.068Z,23.10
2022-08-27T11:58:28.889Z,22.70
2022-08-27T12:00:35.632Z,22.20
2022-08-27T12:02:38.722Z,22.40
2022-08-27T12:04:43.017Z,22.50
2022-08-27T12:06:52.888Z,22.70
2022-08-27T12:09:12.970Z,22.70
2022-08-27T12:11:28.920Z,22.70
2022-08-27T12:13:42.693Z,22.50
2022-08-27T12:16:02.076Z,22.40
2022-08-27T12:18:27.873Z,22.80
2022-08-27T12:20:43.415Z,22.70
2022-08-27T12:23:06.368Z,22.60
2022-08-27T12:25:21.491Z,22.80
2022-08-27T12:27:33.178Z,23.40
2022-08-27T12:29:44.136Z,23.70
2022-08-27T12:31:49.787Z,23.80
2022-08-27T12:33:54.632Z,23.70
2022-08-27T12:36:04.664Z,23.70
2022-08-27T12:38:13.397Z,23.70
2022-08-27T12:40:22.565Z,23.70
2022-08-27T12:42:27.584Z,22.90
2022-08-27T12:44:33.402Z,22.30
2022-08-27T12:46:47.441Z,22.00
2022-08-27T12:48:59.344Z,21.90
2022-08-27T12:51:24.821Z,22.30
2022-08-27T12:53:41.866Z,22.30
2022-08-27T12:55:56.292Z,22.50
2022-08-27T12:58:12.193Z,22.40
2022-08-27T13:00:26.341Z,22.20
2022-08-27T13:02:49.149Z,22.20
2022-08-27T13:04:53.079Z,22.30
2022-08-27T13:06:56.193Z,22.20
2022-08-27T13:09:01.689Z,22.30
2022-08-27T13:11:12.758Z,22.70
2022-08-27T13:13:19.880Z,23.20
2022-08-27T13:15:23.484Z,22.90
2022-08-27T13:17:27.158Z,23.40
2022-08-27T13:19:35.464Z,23.50
2022-08-27T13:21:39.392Z,23.60
2022-08-27T13:23:45.300Z,24.50
2022-08-27T13:26:03.422Z,25.50
2022-08-27T13:28:10.771Z,25.10
2022-08-27T13:30:18.163Z,25.00
2022-08-27T13:32:38.984Z,24.70
2022-08-27T13:34:44.797Z,24.70
2022-08-27T13:36:56.377Z,24.30
2022-08-27T13:39:01.473Z,24.70
2022-08-27T13:41:07.783Z,24.20
2022-08-27T13:43:13.174Z,24.20
2022-08-27T13:45:18.056Z,23.60
2022-08-27T13:47:23.928Z,23.30
2022-08-27T13:49:29.750Z,23.00
2022-08-27T13:51:36.283Z,23.10
2022-08-27T13:53:46.205Z,23.90
2022-08-27T13:55:50.405Z,24.80
2022-08-27T13:57:54.050Z,25.20
2022-08-27T14:00:10.483Z,25.00
2022-08-27T14:02:22.195Z,24.70
2022-08-27T14:04:34.732Z,25.00
2022-08-27T14:06:45.584Z,25.80
2022-08-27T14:08:48.649Z,26.30
2022-08-27T14:11:01.007Z,26.20
2022-08-27T14:13:07.016Z,25.40
2022-08-27T14:15:20.800Z,25.50
2022-08-27T14:17:29.479Z,25.40
2022-08-27T14:19:36.259Z,24.20
2022-08-27T14:21:43.283Z,23.80
2022-08-27T14:23:46.577Z,24.30
2022-08-27T14:25:51.038Z,25.00
2022-08-27T14:27:55.337Z,25.30
2022-08-27T14:29:58.538Z,25.70
2022-08-27T14:32:01.597Z,25.30
2022-08-27T14:34:04.708Z,24.60
2022-08-27T14:36:09.016Z,25.10
2022-08-27T14:38:17.884Z,25.30
2022-08-27T14:40:21.251Z,25.50
2022-08-27T14:42:24.338Z,24.70
2022-08-27T14:44:31.776Z,25.50
2022-08-27T14:46:41.375Z,26.20
2022-08-27T14:48:51.681Z,26.50
2022-08-27T14:50:55.153Z,26.40
2022-08-27T14:52:58.270Z,26.10
2022-08-27T14:55:06.825Z,25.20
2022-08-27T14:57:13.179Z,24.50
2022-08-27T14:59:16.308Z,24.60
2022-08-27T15:01:22.585Z,24.40
2022-08-27T15:03:25.852Z,24.80
2022-08-27T15:05:29.072Z,24.70
2022-08-27T15:07:32.233Z,24.70
2022-08-27T15:09:35.341Z,24.80
2022-08-27T15:11:41.149Z,24.70
2022-08-27T15:13:45.376Z,24.50
2022-08-27T15:15:48.478Z,24.50
2022-08-27T15:17:55.723Z,24.20
2022-08-27T15:19:58.896Z,23.90
2022-08-27T15:22:05.387Z,24.00
2022-08-27T15:24:15.678Z,23.90
2022-08-27T15:26:18.781Z,23.50
2022-08-27T15:28:24.431Z,23.20
2022-08-27T15:30:28.894Z,23.00
2022-08-27T15:32:34.501Z,23.20
2022-08-27T15:34:37.559Z,23.20
2022-08-27T15:36:41.039Z,23.00
2022-08-27T15:38:44.690Z,23.20
2022-08-27T15:40:47.993Z,23.30
2022-08-27T15:42:56.437Z,23.40
2022-08-27T15:45:02.625Z,23.30
2022-08-27T15:47:05.877Z,23.20
2022-08-27T15:49:10.628Z,23.10
2022-08-27T15:51:14.853Z,23.20
2022-08-27T15:53:22.977Z,23.60
2022-08-27T15:55:28.846Z,23.80
2022-08-27T15:57:32.025Z,23.70
2022-08-27T15:59:35.763Z,23.90
2022-08-27T16:01:43.015Z,24.00
2022-08-27T16:03:46.702Z,24.20
2022-08-27T16:05:49.696Z,23.70
2022-08-27T16:07:52.719Z,23.30
2022-08-27T16:09:55.722Z,23.20
2022-08-27T16:11:58.775Z,23.10
2022-08-27T16:14:02.017Z,23.30
2022-08-27T16:16:07.095Z,23.10
2022-08-27T16:18:13.964Z,23.30
2022-08-27T16:20:17.042Z,23.70
2022-08-27T16:22:20.933Z,24.20
2022-08-27T16:24:24.168Z,24.30
2022-08-27T16:26:34.054Z,24.40
2022-08-27T16:28:37.765Z,24.20
2022-08-27T16:30:41.374Z,24.10
2022-08-27T16:32:59.482Z,23.90
2022-08-27T16:35:10.610Z,23.40
2022-08-27T16:37:13.229Z,23.10
2022-08-27T16:39:34.636Z,22.70
2022-08-27T16:41:40.735Z,22.30
2022-08-27T16:43:44.604Z,22.20
2022-08-27T16:45:47.355Z,21.90
2022-08-27T16:48:05.273Z,21.80
2022-08-27T16:50:24.270Z,21.90
2022-08-27T16:52:29.547Z,21.80
2022-08-27T16:54:35.866Z,21.70
2022-08-27T16:56:41.543Z,21.70
2022-08-27T16:58:50.488Z,21.50
2022-08-27T17:00:58.449Z,21.50
2022-08-27T17:03:01.673Z,21.30
2022-08-27T17:05:30.584Z,21.20
2022-08-27T17:07:31.874Z,21.20
2022-08-27T17:09:40.383Z,21.10
2022-08-27T17:11:58.630Z,20.90
2022-08-27T17:14:16.607Z,20.80
2022-08-27T17:16:35.536Z,20.90
2022-08-27T17:18:53.479Z,20.90
2022-08-27T17:21:12.966Z,20.80
2022-08-27T17:23:37.007Z,20.70
2022-08-27T17:25:54.740Z,20.60
2022-08-27T17:28:12.617Z,20.60
2022-08-27T17:30:30.753Z,20.50
2022-08-27T17:32:49.394Z,20.50
2022-08-27T17:35:08.770Z,20.30
2022-08-27T17:37:26.563Z,20.30
2022-08-27T17:39:46.929Z,20.30
2022-08-27T17:42:05.627Z,20.30
2022-08-27T17:44:25.626Z,20.30
2022-08-27T17:46:43.420Z,20.30
2022-08-27T17:48:45.879Z,20.30
2022-08-27T17:50:48.345Z,20.30
2022-08-27T17:53:07.239Z,20.20
2022-08-27T17:55:12.969Z,20.20
2022-08-27T17:57:19.294Z,20.20
2022-08-27T17:59:22.839Z,20.20
2022-08-27T18:01:41.610Z,20.20
2022-08-27T18:04:04.761Z,20.20
2022-08-27T18:06:14.073Z,20.20
2022-08-27T18:08:17.080Z,20.30
2022-08-27T18:10:26.918Z,20.20
2022-08-27T18:12:30.509Z,20.20
2022-08-27T18:14:34.732Z,20.20
2022-08-27T18:16:38.403Z,20.20
2022-08-27T18:18:42.121Z,20.20
2022-08-27T18:20:45.270Z,20.20
2022-08-27T18:22:49.635Z,20.20
2022-08-27T18:24:52.801Z,20.20
2022-08-27T18:26:58.603Z,20.20
2022-08-27T18:29:02.530Z,20.20
2022-08-27T18:31:06.089Z,20.10
